sensor_id;sensor_type;location;lat;lon;timestamp;P1;durP1;ratioP1;P2;durP2;ratioP2
54959;SDS011;40860;51.710;8.736;2022-12-13T00:03:04;28.27;;;15.20;;
54959;SDS011;40860;51.710;8.736;2022-12-13T00:07:08;32.50;;;16.00;;
54959;SDS011;40860;51.710;8.736;2022-12-13T00:11:12;28.25;;;15.00;;
54959;SDS011;40860;51.710;8.736;2022-12-13T00:15:17;32.42;;;15.57;;
54959;SDS011;40860;51.710;8.736;2022-12-13T00:19:20;30.23;;;16.30;;
54959;SDS011;40860;51.710;8.736;2022-12-13T00:23:25;30.77;;;15.23;;
54959;SDS011;40860;51.710;8.736;2022-12-13T00:27:30;31.48;;;15.95;;
54959;SDS011;40860;51.710;8.736;2022-12-13T00:31:34;31.42;;;15.85;;
54959;SDS011;40860;51.710;8.736;2022-12-13T00:35:57;29.52;;;15.18;;
54959;SDS011;40860;51.710;8.736;2022-12-13T00:40:04;29.63;;;15.00;;
54959;SDS011;40860;51.710;8.736;2022-12-13T00:44:08;27.15;;;15.07;;
54959;SDS011;40860;51.710;8.736;2022-12-13T00:48:14;30.60;;;15.68;;
54959;SDS011;40860;51.710;8.736;2022-12-13T00:52:17;30.50;;;15.40;;
54959;SDS011;40860;51.710;8.736;2022-12-13T00:56:21;32.92;;;15.00;;
54959;SDS011;40860;51.710;8.736;2022-12-13T01:00:25;27.58;;;14.50;;
54959;SDS011;40860;51.710;8.736;2022-12-13T01:04:30;31.00;;;15.57;;
54959;SDS011;40860;51.710;8.736;2022-12-13T01:08:33;28.60;;;15.07;;
54959;SDS011;40860;51.710;8.736;2022-12-13T01:12:36;26.67;;;14.20;;
54959;SDS011;40860;51.710;8.736;2022-12-13T01:16:39;32.45;;;15.30;;
54959;SDS011;40860;51.710;8.736;2022-12-13T01:20:43;29.35;;;15.52;;
54959;SDS011;40860;51.710;8.736;2022-12-13T01:24:59;35.72;;;16.65;;
54959;SDS011;40860;51.710;8.736;2022-12-13T01:29:02;31.35;;;15.70;;
54959;SDS011;40860;51.710;8.736;2022-12-13T01:33:06;29.00;;;15.25;;
54959;SDS011;40860;51.710;8.736;2022-12-13T01:37:16;27.85;;;14.57;;
54959;SDS011;40860;51.710;8.736;2022-12-13T01:41:26;31.10;;;15.20;;
54959;SDS011;40860;51.710;8.736;2022-12-13T01:45:30;33.28;;;14.80;;
54959;SDS011;40860;51.710;8.736;2022-12-13T01:49:33;28.90;;;15.18;;
54959;SDS011;40860;51.710;8.736;2022-12-13T01:53:37;30.23;;;14.75;;
54959;SDS011;40860;51.710;8.736;2022-12-13T01:57:43;30.95;;;14.70;;
54959;SDS011;40860;51.710;8.736;2022-12-13T02:01:50;29.55;;;14.80;;
54959;SDS011;40860;51.710;8.736;2022-12-13T02:06:02;31.73;;;14.38;;
54959;SDS011;40860;51.710;8.736;2022-12-13T02:10:10;29.75;;;14.68;;
54959;SDS011;40860;51.710;8.736;2022-12-13T02:14:15;31.08;;;15.80;;
54959;SDS011;40860;51.710;8.736;2022-12-13T02:18:28;32.55;;;15.93;;
54959;SDS011;40860;51.710;8.736;2022-12-13T02:22:48;30.77;;;14.48;;
54959;SDS011;40860;51.710;8.736;2022-12-13T02:27:19;33.90;;;15.23;;
54959;SDS011;40860;51.710;8.736;2022-12-13T02:31:45;31.73;;;15.15;;
54959;SDS011;40860;51.710;8.736;2022-12-13T02:35:59;30.15;;;15.02;;
54959;SDS011;40860;51.710;8.736;2022-12-13T02:40:09;34.78;;;15.65;;
54959;SDS011;40860;51.710;8.736;2022-12-13T02:44:23;33.63;;;14.60;;
54959;SDS011;40860;51.710;8.736;2022-12-13T02:48:40;33.58;;;15.48;;
54959;SDS011;40860;51.710;8.736;2022-12-13T02:52:47;30.55;;;15.07;;
54959;SDS011;40860;51.710;8.736;2022-12-13T02:56:53;31.77;;;14.80;;
54959;SDS011;40860;51.710;8.736;2022-12-13T03:00:58;30.55;;;14.95;;
54959;SDS011;40860;51.710;8.736;2022-12-13T03:05:32;33.25;;;14.55;;
54959;SDS011;40860;51.710;8.736;2022-12-13T03:10:01;34.35;;;15.25;;
54959;SDS011;40860;51.710;8.736;2022-12-13T03:14:10;31.17;;;14.40;;
54959;SDS011;40860;51.710;8.736;2022-12-13T03:18:15;32.85;;;15.15;;
54959;SDS011;40860;51.710;8.736;2022-12-13T03:22:22;29.98;;;15.20;;
54959;SDS011;40860;51.710;8.736;2022-12-13T03:26:25;34.60;;;15.18;;
54959;SDS011;40860;51.710;8.736;2022-12-13T03:30:28;33.25;;;14.68;;
54959;SDS011;40860;51.710;8.736;2022-12-13T03:34:32;33.30;;;15.63;;
54959;SDS011;40860;51.710;8.736;2022-12-13T03:38:47;33.30;;;15.68;;
54959;SDS011;40860;51.710;8.736;2022-12-13T03:42:52;30.15;;;15.02;;
54959;SDS011;40860;51.710;8.736;2022-12-13T03:46:55;31.98;;;14.68;;
54959;SDS011;40860;51.710;8.736;2022-12-13T03:51:01;32.25;;;15.15;;
54959;SDS011;40860;51.710;8.736;2022-12-13T03:55:06;32.30;;;14.90;;
54959;SDS011;40860;51.710;8.736;2022-12-13T03:59:09;33.78;;;15.70;;
54959;SDS011;40860;51.710;8.736;2022-12-13T04:03:12;34.55;;;15.32;;
54959;SDS011;40860;51.710;8.736;2022-12-13T04:07:15;35.38;;;15.73;;
54959;SDS011;40860;51.710;8.736;2022-12-13T04:11:24;34.70;;;14.95;;
54959;SDS011;40860;51.710;8.736;2022-12-13T04:15:44;32.80;;;15.48;;
54959;SDS011;40860;51.710;8.736;2022-12-13T04:19:50;32.55;;;14.88;;
54959;SDS011;40860;51.710;8.736;2022-12-13T04:23:52;36.17;;;15.20;;
54959;SDS011;40860;51.710;8.736;2022-12-13T04:28:02;33.22;;;15.43;;
54959;SDS011;40860;51.710;8.736;2022-12-13T04:32:05;32.97;;;15.43;;
54959;SDS011;40860;51.710;8.736;2022-12-13T04:36:27;30.13;;;14.23;;
54959;SDS011;40860;51.710;8.736;2022-12-13T04:40:32;35.15;;;15.60;;
54959;SDS011;40860;51.710;8.736;2022-12-13T04:44:37;32.83;;;15.38;;
54959;SDS011;40860;51.710;8.736;2022-12-13T04:48:46;37.05;;;15.68;;
54959;SDS011;40860;51.710;8.736;2022-12-13T04:52:49;34.50;;;15.32;;
54959;SDS011;40860;51.710;8.736;2022-12-13T04:56:52;33.90;;;15.63;;
54959;SDS011;40860;51.710;8.736;2022-12-13T05:00:56;32.15;;;15.10;;
54959;SDS011;40860;51.710;8.736;2022-12-13T05:05:01;37.28;;;15.52;;
54959;SDS011;40860;51.710;8.736;2022-12-13T05:09:05;37.10;;;15.90;;
54959;SDS011;40860;51.710;8.736;2022-12-13T05:13:11;38.53;;;15.38;;
54959;SDS011;40860;51.710;8.736;2022-12-13T05:17:16;33.97;;;15.50;;
54959;SDS011;40860;51.710;8.736;2022-12-13T05:21:19;35.38;;;14.65;;
54959;SDS011;40860;51.710;8.736;2022-12-13T05:25:23;34.97;;;14.98;;
54959;SDS011;40860;51.710;8.736;2022-12-13T05:29:26;34.25;;;15.73;;
54959;SDS011;40860;51.710;8.736;2022-12-13T05:33:31;33.30;;;14.38;;
54959;SDS011;40860;51.710;8.736;2022-12-13T05:37:34;32.08;;;15.23;;
54959;SDS011;40860;51.710;8.736;2022-12-13T05:41:37;35.22;;;15.40;;
54959;SDS011;40860;51.710;8.736;2022-12-13T05:45:40;33.72;;;15.13;;
54959;SDS011;40860;51.710;8.736;2022-12-13T05:49:44;36.50;;;15.02;;
54959;SDS011;40860;51.710;8.736;2022-12-13T05:53:50;33.05;;;15.45;;
54959;SDS011;40860;51.710;8.736;2022-12-13T05:57:53;34.53;;;15.95;;
54959;SDS011;40860;51.710;8.736;2022-12-13T06:02:02;43.17;;;19.35;;
54959;SDS011;40860;51.710;8.736;2022-12-13T06:06:08;40.75;;;17.95;;
54959;SDS011;40860;51.710;8.736;2022-12-13T06:10:13;33.60;;;15.65;;
54959;SDS011;40860;51.710;8.736;2022-12-13T06:14:22;37.33;;;15.40;;
54959;SDS011;40860;51.710;8.736;2022-12-13T06:18:25;31.80;;;15.15;;
54959;SDS011;40860;51.710;8.736;2022-12-13T06:22:29;37.13;;;16.83;;
54959;SDS011;40860;51.710;8.736;2022-12-13T06:26:32;38.08;;;16.63;;
54959;SDS011;40860;51.710;8.736;2022-12-13T06:30:35;32.65;;;16.50;;
54959;SDS011;40860;51.710;8.736;2022-12-13T06:34:43;35.17;;;15.85;;
54959;SDS011;40860;51.710;8.736;2022-12-13T06:38:47;34.83;;;15.85;;
54959;SDS011;40860;51.710;8.736;2022-12-13T06:42:50;38.13;;;16.65;;
54959;SDS011;40860;51.710;8.736;2022-12-13T06:46:53;38.25;;;16.25;;
54959;SDS011;40860;51.710;8.736;2022-12-13T06:51:13;33.90;;;16.55;;
54959;SDS011;40860;51.710;8.736;2022-12-13T06:55:24;37.53;;;16.42;;
54959;SDS011;40860;51.710;8.736;2022-12-13T06:59:27;46.40;;;18.42;;
54959;SDS011;40860;51.710;8.736;2022-12-13T07:03:30;38.72;;;17.73;;
54959;SDS011;40860;51.710;8.736;2022-12-13T07:07:33;41.70;;;19.17;;
54959;SDS011;40860;51.710;8.736;2022-12-13T07:11:37;36.13;;;15.85;;
54959;SDS011;40860;51.710;8.736;2022-12-13T07:15:40;33.95;;;16.05;;
54959;SDS011;40860;51.710;8.736;2022-12-13T07:19:43;35.53;;;15.65;;
54959;SDS011;40860;51.710;8.736;2022-12-13T07:23:47;37.53;;;16.45;;
54959;SDS011;40860;51.710;8.736;2022-12-13T07:27:57;38.05;;;16.23;;
54959;SDS011;40860;51.710;8.736;2022-12-13T07:32:03;36.42;;;17.27;;
54959;SDS011;40860;51.710;8.736;2022-12-13T07:36:06;36.85;;;16.73;;
54959;SDS011;40860;51.710;8.736;2022-12-13T07:40:13;37.83;;;16.83;;
54959;SDS011;40860;51.710;8.736;2022-12-13T07:44:17;37.45;;;16.45;;
54959;SDS011;40860;51.710;8.736;2022-12-13T07:48:20;42.05;;;16.95;;
54959;SDS011;40860;51.710;8.736;2022-12-13T07:52:23;33.83;;;15.93;;
54959;SDS011;40860;51.710;8.736;2022-12-13T07:56:26;35.25;;;14.98;;
54959;SDS011;40860;51.710;8.736;2022-12-13T08:00:30;38.25;;;16.13;;
54959;SDS011;40860;51.710;8.736;2022-12-13T08:04:33;41.88;;;17.75;;
54959;SDS011;40860;51.710;8.736;2022-12-13T08:08:38;41.38;;;18.20;;
54959;SDS011;40860;51.710;8.736;2022-12-13T08:12:41;35.63;;;15.75;;
54959;SDS011;40860;51.710;8.736;2022-12-13T08:16:46;34.58;;;15.05;;
54959;SDS011;40860;51.710;8.736;2022-12-13T08:20:49;32.17;;;13.93;;
54959;SDS011;40860;51.710;8.736;2022-12-13T08:24:51;30.40;;;14.55;;
54959;SDS011;40860;51.710;8.736;2022-12-13T08:28:55;37.17;;;14.93;;
54959;SDS011;40860;51.710;8.736;2022-12-13T08:32:59;34.08;;;14.20;;
54959;SDS011;40860;51.710;8.736;2022-12-13T08:37:05;32.38;;;14.57;;
54959;SDS011;40860;51.710;8.736;2022-12-13T08:41:08;33.58;;;15.18;;
54959;SDS011;40860;51.710;8.736;2022-12-13T08:45:11;36.28;;;15.38;;
54959;SDS011;40860;51.710;8.736;2022-12-13T08:49:16;31.42;;;15.18;;
54959;SDS011;40860;51.710;8.736;2022-12-13T08:53:19;33.50;;;14.57;;
54959;SDS011;40860;51.710;8.736;2022-12-13T08:57:29;30.27;;;14.73;;
54959;SDS011;40860;51.710;8.736;2022-12-13T09:01:32;31.48;;;14.45;;
54959;SDS011;40860;51.710;8.736;2022-12-13T09:05:37;30.60;;;14.68;;
54959;SDS011;40860;51.710;8.736;2022-12-13T09:09:39;29.02;;;13.48;;
54959;SDS011;40860;51.710;8.736;2022-12-13T09:13:42;31.65;;;14.88;;
54959;SDS011;40860;51.710;8.736;2022-12-13T09:17:46;32.10;;;14.00;;
54959;SDS011;40860;51.710;8.736;2022-12-13T09:21:54;29.98;;;15.15;;
54959;SDS011;40860;51.710;8.736;2022-12-13T09:26:03;32.35;;;14.73;;
54959;SDS011;40860;51.710;8.736;2022-12-13T09:30:07;30.73;;;14.77;;
54959;SDS011;40860;51.710;8.736;2022-12-13T09:34:13;30.08;;;14.43;;
54959;SDS011;40860;51.710;8.736;2022-12-13T09:38:20;30.50;;;13.80;;
54959;SDS011;40860;51.710;8.736;2022-12-13T09:42:24;30.88;;;13.95;;
54959;SDS011;40860;51.710;8.736;2022-12-13T09:46:33;25.33;;;14.25;;
54959;SDS011;40860;51.710;8.736;2022-12-13T09:50:49;31.40;;;14.02;;
54959;SDS011;40860;51.710;8.736;2022-12-13T09:55:21;32.75;;;14.55;;
54959;SDS011;40860;51.710;8.736;2022-12-13T09:59:32;27.42;;;13.93;;
54959;SDS011;40860;51.710;8.736;2022-12-13T10:03:45;29.05;;;14.48;;
54959;SDS011;40860;51.710;8.736;2022-12-13T10:07:51;28.55;;;14.88;;
54959;SDS011;40860;51.710;8.736;2022-12-13T10:12:03;29.88;;;14.30;;
54959;SDS011;40860;51.710;8.736;2022-12-13T10:16:08;26.88;;;13.95;;
54959;SDS011;40860;51.710;8.736;2022-12-13T10:20:24;25.88;;;13.57;;
54959;SDS011;40860;51.710;8.736;2022-12-13T10:24:46;28.58;;;14.05;;
54959;SDS011;40860;51.710;8.736;2022-12-13T10:29:01;27.73;;;13.68;;
54959;SDS011;40860;51.710;8.736;2022-12-13T10:33:17;25.58;;;13.32;;
54959;SDS011;40860;51.710;8.736;2022-12-13T10:37:26;27.13;;;13.98;;
54959;SDS011;40860;51.710;8.736;2022-12-13T10:41:36;28.25;;;14.05;;
54959;SDS011;40860;51.710;8.736;2022-12-13T10:50:02;28.38;;;14.98;;
54959;SDS011;40860;51.710;8.736;2022-12-13T10:54:10;28.45;;;13.60;;
54959;SDS011;40860;51.710;8.736;2022-12-13T10:58:18;25.92;;;13.65;;
54959;SDS011;40860;51.710;8.736;2022-12-13T11:02:28;29.67;;;14.27;;
54959;SDS011;40860;51.710;8.736;2022-12-13T11:06:40;31.00;;;14.70;;
54959;SDS011;40860;51.710;8.736;2022-12-13T11:10:54;26.80;;;13.98;;
54959;SDS011;40860;51.710;8.736;2022-12-13T11:15:00;26.25;;;13.65;;
54959;SDS011;40860;51.710;8.736;2022-12-13T11:19:13;25.85;;;14.10;;
54959;SDS011;40860;51.710;8.736;2022-12-13T11:23:21;28.30;;;13.30;;
54959;SDS011;40860;51.710;8.736;2022-12-13T11:27:38;26.25;;;13.10;;
54959;SDS011;40860;51.710;8.736;2022-12-13T11:31:52;24.38;;;12.18;;
54959;SDS011;40860;51.710;8.736;2022-12-13T11:36:10;32.50;;;14.93;;
54959;SDS011;40860;51.710;8.736;2022-12-13T11:40:24;26.38;;;13.55;;
54959;SDS011;40860;51.710;8.736;2022-12-13T11:44:32;28.05;;;13.52;;
54959;SDS011;40860;51.710;8.736;2022-12-13T11:48:50;27.70;;;12.93;;
54959;SDS011;40860;51.710;8.736;2022-12-13T11:53:04;27.30;;;13.23;;
54959;SDS011;40860;51.710;8.736;2022-12-13T11:57:26;23.02;;;12.63;;
54959;SDS011;40860;51.710;8.736;2022-12-13T12:01:35;24.30;;;13.02;;
54959;SDS011;40860;51.710;8.736;2022-12-13T12:05:44;24.77;;;12.50;;
54959;SDS011;40860;51.710;8.736;2022-12-13T12:10:00;25.10;;;13.15;;
54959;SDS011;40860;51.710;8.736;2022-12-13T12:14:12;22.38;;;12.45;;
54959;SDS011;40860;51.710;8.736;2022-12-13T12:18:20;22.45;;;11.80;;
54959;SDS011;40860;51.710;8.736;2022-12-13T12:22:26;23.38;;;12.07;;
54959;SDS011;40860;51.710;8.736;2022-12-13T12:26:41;21.70;;;12.10;;
54959;SDS011;40860;51.710;8.736;2022-12-13T12:30:57;22.33;;;12.15;;
54959;SDS011;40860;51.710;8.736;2022-12-13T12:44:29;22.50;;;11.10;;
54959;SDS011;40860;51.710;8.736;2022-12-13T12:48:45;23.02;;;12.00;;
54959;SDS011;40860;51.710;8.736;2022-12-13T12:53:21;21.13;;;11.38;;
54959;SDS011;40860;51.710;8.736;2022-12-13T12:57:39;21.23;;;11.57;;
54959;SDS011;40860;51.710;8.736;2022-12-13T13:01:56;19.33;;;10.10;;
54959;SDS011;40860;51.710;8.736;2022-12-13T13:06:08;21.08;;;11.05;;
54959;SDS011;40860;51.710;8.736;2022-12-13T13:10:15;20.42;;;10.80;;
54959;SDS011;40860;51.710;8.736;2022-12-13T13:14:29;20.80;;;10.52;;
54959;SDS011;40860;51.710;8.736;2022-12-13T13:18:44;22.08;;;11.15;;
54959;SDS011;40860;51.710;8.736;2022-12-13T13:22:52;20.42;;;10.77;;
54959;SDS011;40860;51.710;8.736;2022-12-13T13:27:22;20.73;;;11.35;;
54959;SDS011;40860;51.710;8.736;2022-12-13T13:31:33;19.70;;;11.00;;
54959;SDS011;40860;51.710;8.736;2022-12-13T13:36:07;21.10;;;11.57;;
54959;SDS011;40860;51.710;8.736;2022-12-13T13:40:30;21.13;;;11.30;;
54959;SDS011;40860;51.710;8.736;2022-12-13T13:49:23;22.10;;;11.32;;
54959;SDS011;40860;51.710;8.736;2022-12-13T13:58:30;22.13;;;11.20;;
54959;SDS011;40860;51.710;8.736;2022-12-13T14:02:57;23.65;;;11.70;;
54959;SDS011;40860;51.710;8.736;2022-12-13T14:21:27;19.80;;;11.07;;
54959;SDS011;40860;51.710;8.736;2022-12-13T14:25:41;23.25;;;11.35;;
54959;SDS011;40860;51.710;8.736;2022-12-13T14:29:55;23.20;;;11.60;;
54959;SDS011;40860;51.710;8.736;2022-12-13T14:33:59;22.45;;;11.20;;
54959;SDS011;40860;51.710;8.736;2022-12-13T14:38:05;21.77;;;11.27;;
54959;SDS011;40860;51.710;8.736;2022-12-13T14:42:22;22.92;;;11.95;;
54959;SDS011;40860;51.710;8.736;2022-12-13T14:46:28;23.52;;;11.63;;
54959;SDS011;40860;51.710;8.736;2022-12-13T14:50:32;21.52;;;11.57;;
54959;SDS011;40860;51.710;8.736;2022-12-13T14:54:38;23.67;;;12.02;;
54959;SDS011;40860;51.710;8.736;2022-12-13T14:58:51;21.63;;;11.27;;
54959;SDS011;40860;51.710;8.736;2022-12-13T15:02:57;19.38;;;11.30;;
54959;SDS011;40860;51.710;8.736;2022-12-13T15:07:02;22.33;;;11.30;;
54959;SDS011;40860;51.710;8.736;2022-12-13T15:11:08;20.23;;;10.73;;
54959;SDS011;40860;51.710;8.736;2022-12-13T15:15:16;21.75;;;10.27;;
54959;SDS011;40860;51.710;8.736;2022-12-13T15:19:26;23.52;;;11.60;;
54959;SDS011;40860;51.710;8.736;2022-12-13T15:23:38;21.65;;;10.85;;
54959;SDS011;40860;51.710;8.736;2022-12-13T15:27:53;21.67;;;11.25;;
54959;SDS011;40860;51.710;8.736;2022-12-13T15:31:57;24.27;;;11.70;;
54959;SDS011;40860;51.710;8.736;2022-12-13T15:36:04;25.23;;;12.95;;
54959;SDS011;40860;51.710;8.736;2022-12-13T15:40:11;25.25;;;12.07;;
54959;SDS011;40860;51.710;8.736;2022-12-13T15:44:16;22.08;;;11.07;;
54959;SDS011;40860;51.710;8.736;2022-12-13T15:48:23;23.35;;;11.40;;
54959;SDS011;40860;51.710;8.736;2022-12-13T15:52:35;22.77;;;11.40;;
54959;SDS011;40860;51.710;8.736;2022-12-13T15:56:40;23.83;;;11.13;;
54959;SDS011;40860;51.710;8.736;2022-12-13T16:00:59;23.80;;;11.73;;
54959;SDS011;40860;51.710;8.736;2022-12-13T16:05:06;23.67;;;11.38;;
54959;SDS011;40860;51.710;8.736;2022-12-13T16:09:15;24.67;;;12.10;;
54959;SDS011;40860;51.710;8.736;2022-12-13T16:13:22;24.25;;;11.75;;
54959;SDS011;40860;51.710;8.736;2022-12-13T16:17:27;23.70;;;12.07;;
54959;SDS011;40860;51.710;8.736;2022-12-13T16:21:30;24.02;;;12.20;;
54959;SDS011;40860;51.710;8.736;2022-12-13T16:25:35;23.30;;;12.10;;
54959;SDS011;40860;51.710;8.736;2022-12-13T16:29:37;23.77;;;12.15;;
54959;SDS011;40860;51.710;8.736;2022-12-13T16:33:41;25.70;;;12.00;;
54959;SDS011;40860;51.710;8.736;2022-12-13T16:37:44;22.17;;;11.00;;
54959;SDS011;40860;51.710;8.736;2022-12-13T16:41:49;23.65;;;11.55;;
54959;SDS011;40860;51.710;8.736;2022-12-13T16:45:53;23.63;;;12.05;;
54959;SDS011;40860;51.710;8.736;2022-12-13T16:49:57;25.98;;;12.55;;
54959;SDS011;40860;51.710;8.736;2022-12-13T16:54:04;25.02;;;12.68;;
54959;SDS011;40860;51.710;8.736;2022-12-13T16:58:10;27.58;;;12.85;;
54959;SDS011;40860;51.710;8.736;2022-12-13T17:02:15;29.05;;;12.27;;
54959;SDS011;40860;51.710;8.736;2022-12-13T17:06:19;28.73;;;12.82;;
54959;SDS011;40860;51.710;8.736;2022-12-13T17:10:25;27.05;;;13.48;;
54959;SDS011;40860;51.710;8.736;2022-12-13T17:14:29;27.52;;;13.55;;
54959;SDS011;40860;51.710;8.736;2022-12-13T17:18:32;26.70;;;13.65;;
54959;SDS011;40860;51.710;8.736;2022-12-13T17:22:35;28.23;;;13.50;;
54959;SDS011;40860;51.710;8.736;2022-12-13T17:26:39;25.60;;;13.88;;
54959;SDS011;40860;51.710;8.736;2022-12-13T17:31:03;28.95;;;16.48;;
54959;SDS011;40860;51.710;8.736;2022-12-13T17:35:07;29.75;;;14.20;;
54959;SDS011;40860;51.710;8.736;2022-12-13T17:39:18;29.38;;;16.33;;
54959;SDS011;40860;51.710;8.736;2022-12-13T17:43:21;29.10;;;15.75;;
54959;SDS011;40860;51.710;8.736;2022-12-13T17:47:36;33.67;;;16.45;;
54959;SDS011;40860;51.710;8.736;2022-12-13T17:51:40;30.55;;;15.45;;
54959;SDS011;40860;51.710;8.736;2022-12-13T17:55:55;29.77;;;14.57;;
54959;SDS011;40860;51.710;8.736;2022-12-13T17:59:59;30.73;;;14.18;;
54959;SDS011;40860;51.710;8.736;2022-12-13T18:04:03;28.60;;;14.23;;
54959;SDS011;40860;51.710;8.736;2022-12-13T18:08:06;30.23;;;14.30;;
54959;SDS011;40860;51.710;8.736;2022-12-13T18:12:09;28.48;;;14.15;;
54959;SDS011;40860;51.710;8.736;2022-12-13T18:16:13;31.98;;;14.73;;
54959;SDS011;40860;51.710;8.736;2022-12-13T18:20:18;24.55;;;12.63;;
54959;SDS011;40860;51.710;8.736;2022-12-13T18:24:23;23.70;;;12.13;;
54959;SDS011;40860;51.710;8.736;2022-12-13T18:28:26;22.27;;;11.20;;
54959;SDS011;40860;51.710;8.736;2022-12-13T18:32:29;26.20;;;13.77;;
54959;SDS011;40860;51.710;8.736;2022-12-13T18:36:34;25.13;;;12.73;;
54959;SDS011;40860;51.710;8.736;2022-12-13T18:40:37;28.38;;;15.30;;
54959;SDS011;40860;51.710;8.736;2022-12-13T18:44:40;25.85;;;13.07;;
54959;SDS011;40860;51.710;8.736;2022-12-13T18:48:54;23.85;;;12.82;;
54959;SDS011;40860;51.710;8.736;2022-12-13T18:52:59;23.80;;;12.65;;
54959;SDS011;40860;51.710;8.736;2022-12-13T18:57:02;21.63;;;11.23;;
54959;SDS011;40860;51.710;8.736;2022-12-13T19:01:05;19.27;;;10.73;;
54959;SDS011;40860;51.710;8.736;2022-12-13T19:05:09;19.13;;;10.18;;
54959;SDS011;40860;51.710;8.736;2022-12-13T19:09:14;21.95;;;9.95;;
54959;SDS011;40860;51.710;8.736;2022-12-13T19:13:17;20.17;;;9.98;;
54959;SDS011;40860;51.710;8.736;2022-12-13T19:17:20;19.80;;;10.18;;
54959;SDS011;40860;51.710;8.736;2022-12-13T19:21:23;18.83;;;9.90;;
54959;SDS011;40860;51.710;8.736;2022-12-13T19:25:29;18.80;;;9.45;;
54959;SDS011;40860;51.710;8.736;2022-12-13T19:29:32;18.38;;;10.60;;
54959;SDS011;40860;51.710;8.736;2022-12-13T19:33:35;16.63;;;9.73;;
54959;SDS011;40860;51.710;8.736;2022-12-13T19:37:38;17.60;;;9.88;;
54959;SDS011;40860;51.710;8.736;2022-12-13T19:41:42;18.23;;;9.90;;
54959;SDS011;40860;51.710;8.736;2022-12-13T19:45:45;18.48;;;9.63;;
54959;SDS011;40860;51.710;8.736;2022-12-13T19:49:49;18.60;;;9.63;;
54959;SDS011;40860;51.710;8.736;2022-12-13T19:53:52;18.67;;;10.25;;
54959;SDS011;40860;51.710;8.736;2022-12-13T19:57:56;26.80;;;10.68;;
54959;SDS011;40860;51.710;8.736;2022-12-13T20:01:59;18.85;;;9.70;;
54959;SDS011;40860;51.710;8.736;2022-12-13T20:06:02;14.80;;;8.48;;
54959;SDS011;40860;51.710;8.736;2022-12-13T20:10:07;16.13;;;8.82;;
54959;SDS011;40860;51.710;8.736;2022-12-13T20:14:12;19.20;;;9.18;;
54959;SDS011;40860;51.710;8.736;2022-12-13T20:18:15;15.48;;;8.65;;
54959;SDS011;40860;51.710;8.736;2022-12-13T20:22:18;17.00;;;9.25;;
54959;SDS011;40860;51.710;8.736;2022-12-13T20:26:22;16.02;;;8.70;;
54959;SDS011;40860;51.710;8.736;2022-12-13T20:30:28;16.83;;;8.82;;
54959;SDS011;40860;51.710;8.736;2022-12-13T20:34:31;16.40;;;8.68;;
54959;SDS011;40860;51.710;8.736;2022-12-13T20:38:34;18.15;;;9.70;;
54959;SDS011;40860;51.710;8.736;2022-12-13T20:42:40;17.63;;;9.25;;
54959;SDS011;40860;51.710;8.736;2022-12-13T20:46:44;17.35;;;8.63;;
54959;SDS011;40860;51.710;8.736;2022-12-13T20:50:47;16.23;;;8.15;;
54959;SDS011;40860;51.710;8.736;2022-12-13T20:54:59;17.60;;;9.25;;
54959;SDS011;40860;51.710;8.736;2022-12-13T20:59:02;17.48;;;8.98;;
54959;SDS011;40860;51.710;8.736;2022-12-13T21:03:08;18.42;;;9.63;;
54959;SDS011;40860;51.710;8.736;2022-12-13T21:07:16;19.33;;;11.02;;
54959;SDS011;40860;51.710;8.736;2022-12-13T21:11:42;19.33;;;10.68;;
54959;SDS011;40860;51.710;8.736;2022-12-13T21:15:47;16.17;;;9.65;;
54959;SDS011;40860;51.710;8.736;2022-12-13T21:19:51;18.38;;;9.88;;
54959;SDS011;40860;51.710;8.736;2022-12-13T21:23:55;15.48;;;9.25;;
54959;SDS011;40860;51.710;8.736;2022-12-13T21:27:58;16.17;;;9.02;;
54959;SDS011;40860;51.710;8.736;2022-12-13T21:32:01;16.23;;;9.10;;
54959;SDS011;40860;51.710;8.736;2022-12-13T21:36:09;17.10;;;9.23;;
54959;SDS011;40860;51.710;8.736;2022-12-13T21:40:14;17.48;;;9.50;;
54959;SDS011;40860;51.710;8.736;2022-12-13T21:44:18;18.25;;;9.30;;
54959;SDS011;40860;51.710;8.736;2022-12-13T21:48:22;18.98;;;10.30;;
54959;SDS011;40860;51.710;8.736;2022-12-13T21:52:26;18.60;;;9.38;;
54959;SDS011;40860;51.710;8.736;2022-12-13T21:56:29;17.10;;;9.00;;
54959;SDS011;40860;51.710;8.736;2022-12-13T22:00:50;14.75;;;9.15;;
54959;SDS011;40860;51.710;8.736;2022-12-13T22:04:53;16.50;;;8.65;;
54959;SDS011;40860;51.710;8.736;2022-12-13T22:08:59;19.85;;;9.65;;
54959;SDS011;40860;51.710;8.736;2022-12-13T22:13:02;15.23;;;9.20;;
54959;SDS011;40860;51.710;8.736;2022-12-13T22:17:05;18.45;;;9.23;;
54959;SDS011;40860;51.710;8.736;2022-12-13T22:21:08;18.38;;;9.35;;
54959;SDS011;40860;51.710;8.736;2022-12-13T22:25:12;16.20;;;9.50;;
54959;SDS011;40860;51.710;8.736;2022-12-13T22:29:15;18.90;;;9.93;;
54959;SDS011;40860;51.710;8.736;2022-12-13T22:33:18;16.92;;;8.73;;
54959;SDS011;40860;51.710;8.736;2022-12-13T22:37:21;19.10;;;9.88;;
54959;SDS011;40860;51.710;8.736;2022-12-13T22:41:26;19.38;;;9.32;;
54959;SDS011;40860;51.710;8.736;2022-12-13T22:45:29;15.30;;;8.60;;
54959;SDS011;40860;51.710;8.736;2022-12-13T22:49:33;15.70;;;8.98;;
54959;SDS011;40860;51.710;8.736;2022-12-13T22:53:36;18.27;;;9.40;;
54959;SDS011;40860;51.710;8.736;2022-12-13T22:57:40;15.13;;;9.30;;
54959;SDS011;40860;51.710;8.736;2022-12-13T23:01:48;17.10;;;9.02;;
54959;SDS011;40860;51.710;8.736;2022-12-13T23:06:03;16.35;;;9.05;;
54959;SDS011;40860;51.710;8.736;2022-12-13T23:10:07;19.00;;;9.25;;
54959;SDS011;40860;51.710;8.736;2022-12-13T23:14:32;18.35;;;9.05;;
54959;SDS011;40860;51.710;8.736;2022-12-13T23:18:36;15.50;;;8.75;;
54959;SDS011;40860;51.710;8.736;2022-12-13T23:22:39;17.02;;;9.25;;
54959;SDS011;40860;51.710;8.736;2022-12-13T23:26:41;16.30;;;9.15;;
54959;SDS011;40860;51.710;8.736;2022-12-13T23:30:46;17.70;;;8.70;;
54959;SDS011;40860;51.710;8.736;2022-12-13T23:34:49;18.13;;;9.07;;
54959;SDS011;40860;51.710;8.736;2022-12-13T23:38:52;16.63;;;9.63;;
54959;SDS011;40860;51.710;8.736;2022-12-13T23:42:55;18.55;;;9.70;;
54959;SDS011;40860;51.710;8.736;2022-12-13T23:46:59;17.63;;;9.38;;
54959;SDS011;40860;51.710;8.736;2022-12-13T23:51:03;19.48;;;10.38;;
54959;SDS011;40860;51.710;8.736;2022-12-13T23:55:07;20.98;;;11.05;;
54959;SDS011;40860;51.710;8.736;2022-12-13T23:59:11;21.02;;;10.88;;
